sensor_id;sensor_type;location;lat;lon;timestamp;P1;durP1;ratioP1;P2;durP2;ratioP2
8665;SDS011;4370;48.916;8.380;2022-12-18T00:00:41;72.10;;;35.07;;
8665;SDS011;4370;48.916;8.380;2022-12-18T00:03:08;75.18;;;36.03;;
8665;SDS011;4370;48.916;8.380;2022-12-18T00:05:34;87.97;;;39.43;;
8665;SDS011;4370;48.916;8.380;2022-12-18T00:08:00;64.90;;;32.85;;
8665;SDS011;4370;48.916;8.380;2022-12-18T00:10:27;72.37;;;34.73;;
8665;SDS011;4370;48.916;8.380;2022-12-18T00:12:52;64.95;;;34.30;;
8665;SDS011;4370;48.916;8.380;2022-12-18T00:15:18;75.90;;;34.87;;
8665;SDS011;4370;48.916;8.380;2022-12-18T00:17:44;72.50;;;34.10;;
8665;SDS011;4370;48.916;8.380;2022-12-18T00:20:10;79.23;;;35.17;;
8665;SDS011;4370;48.916;8.380;2022-12-18T00:22:36;77.72;;;35.70;;
8665;SDS011;4370;48.916;8.380;2022-12-18T00:25:02;71.07;;;33.60;;
8665;SDS011;4370;48.916;8.380;2022-12-18T00:27:28;79.63;;;36.20;;
8665;SDS011;4370;48.916;8.380;2022-12-18T00:29:54;75.10;;;34.38;;
8665;SDS011;4370;48.916;8.380;2022-12-18T00:32:20;72.00;;;34.27;;
8665;SDS011;4370;48.916;8.380;2022-12-18T00:34:46;65.70;;;32.90;;
8665;SDS011;4370;48.916;8.380;2022-12-18T00:37:12;70.33;;;33.33;;
8665;SDS011;4370;48.916;8.380;2022-12-18T00:39:37;71.13;;;33.93;;
8665;SDS011;4370;48.916;8.380;2022-12-18T00:42:03;68.00;;;34.73;;
8665;SDS011;4370;48.916;8.380;2022-12-18T00:44:48;67.05;;;33.47;;
8665;SDS011;4370;48.916;8.380;2022-12-18T00:47:14;68.43;;;32.43;;
8665;SDS011;4370;48.916;8.380;2022-12-18T00:49:40;77.60;;;35.23;;
8665;SDS011;4370;48.916;8.380;2022-12-18T00:52:05;73.53;;;32.87;;
8665;SDS011;4370;48.916;8.380;2022-12-18T00:54:31;71.63;;;33.70;;
8665;SDS011;4370;48.916;8.380;2022-12-18T00:56:57;70.43;;;33.97;;
8665;SDS011;4370;48.916;8.380;2022-12-18T00:59:23;79.40;;;35.97;;
8665;SDS011;4370;48.916;8.380;2022-12-18T01:01:49;78.07;;;35.73;;
8665;SDS011;4370;48.916;8.380;2022-12-18T01:04:15;74.30;;;34.23;;
8665;SDS011;4370;48.916;8.380;2022-12-18T01:06:40;78.07;;;35.30;;
8665;SDS011;4370;48.916;8.380;2022-12-18T01:09:07;87.50;;;35.83;;
8665;SDS011;4370;48.916;8.380;2022-12-18T01:11:32;86.37;;;36.00;;
8665;SDS011;4370;48.916;8.380;2022-12-18T01:13:58;79.67;;;33.83;;
8665;SDS011;4370;48.916;8.380;2022-12-18T01:16:23;89.67;;;36.07;;
8665;SDS011;4370;48.916;8.380;2022-12-18T01:18:53;71.57;;;32.67;;
8665;SDS011;4370;48.916;8.380;2022-12-18T01:21:19;82.28;;;34.60;;
8665;SDS011;4370;48.916;8.380;2022-12-18T01:23:46;76.93;;;35.53;;
8665;SDS011;4370;48.916;8.380;2022-12-18T01:26:15;73.97;;;32.35;;
8665;SDS011;4370;48.916;8.380;2022-12-18T01:28:41;80.70;;;35.33;;
8665;SDS011;4370;48.916;8.380;2022-12-18T01:31:09;73.88;;;34.17;;
8665;SDS011;4370;48.916;8.380;2022-12-18T01:33:39;76.68;;;33.55;;
8665;SDS011;4370;48.916;8.380;2022-12-18T01:36:05;74.85;;;33.78;;
8665;SDS011;4370;48.916;8.380;2022-12-18T01:38:31;74.95;;;34.05;;
8665;SDS011;4370;48.916;8.380;2022-12-18T01:41:00;73.83;;;32.43;;
8665;SDS011;4370;48.916;8.380;2022-12-18T01:46:19;85.40;;;35.38;;
8665;SDS011;4370;48.916;8.380;2022-12-18T01:48:47;71.57;;;34.08;;
8665;SDS011;4370;48.916;8.380;2022-12-18T01:51:14;75.72;;;33.53;;
8665;SDS011;4370;48.916;8.380;2022-12-18T01:53:40;72.87;;;33.73;;
8665;SDS011;4370;48.916;8.380;2022-12-18T01:56:08;77.13;;;34.10;;
8665;SDS011;4370;48.916;8.380;2022-12-18T01:58:44;80.68;;;35.05;;
8665;SDS011;4370;48.916;8.380;2022-12-18T02:01:26;75.63;;;35.08;;
8665;SDS011;4370;48.916;8.380;2022-12-18T02:03:52;71.43;;;32.47;;
8665;SDS011;4370;48.916;8.380;2022-12-18T02:06:23;74.00;;;33.43;;
8665;SDS011;4370;48.916;8.380;2022-12-18T02:09:02;79.03;;;33.03;;
8665;SDS011;4370;48.916;8.380;2022-12-18T02:16:38;69.90;;;33.15;;
8665;SDS011;4370;48.916;8.380;2022-12-18T02:25:25;75.43;;;34.80;;
8665;SDS011;4370;48.916;8.380;2022-12-18T02:28:08;75.57;;;34.97;;
8665;SDS011;4370;48.916;8.380;2022-12-18T02:30:37;84.38;;;36.38;;
8665;SDS011;4370;48.916;8.380;2022-12-18T02:33:06;76.40;;;34.63;;
8665;SDS011;4370;48.916;8.380;2022-12-18T02:35:33;78.53;;;35.97;;
8665;SDS011;4370;48.916;8.380;2022-12-18T02:38:00;74.88;;;33.65;;
8665;SDS011;4370;48.916;8.380;2022-12-18T02:40:27;74.20;;;35.25;;
8665;SDS011;4370;48.916;8.380;2022-12-18T02:42:54;88.13;;;37.90;;
8665;SDS011;4370;48.916;8.380;2022-12-18T02:45:20;76.50;;;34.53;;
8665;SDS011;4370;48.916;8.380;2022-12-18T02:47:47;79.13;;;34.33;;
8665;SDS011;4370;48.916;8.380;2022-12-18T02:50:29;73.28;;;34.42;;
8665;SDS011;4370;48.916;8.380;2022-12-18T02:53:17;82.00;;;36.28;;
8665;SDS011;4370;48.916;8.380;2022-12-18T03:01:14;78.50;;;34.17;;
8665;SDS011;4370;48.916;8.380;2022-12-18T03:06:12;64.82;;;31.55;;
8665;SDS011;4370;48.916;8.380;2022-12-18T03:08:41;73.68;;;32.33;;
8665;SDS011;4370;48.916;8.380;2022-12-18T03:11:10;66.03;;;31.33;;
8665;SDS011;4370;48.916;8.380;2022-12-18T03:13:42;73.25;;;32.28;;
8665;SDS011;4370;48.916;8.380;2022-12-18T03:16:21;70.25;;;32.63;;
8665;SDS011;4370;48.916;8.380;2022-12-18T03:19:03;78.80;;;33.53;;
8665;SDS011;4370;48.916;8.380;2022-12-18T03:21:34;76.00;;;33.55;;
8665;SDS011;4370;48.916;8.380;2022-12-18T03:24:05;79.47;;;35.20;;
8665;SDS011;4370;48.916;8.380;2022-12-18T03:26:34;73.15;;;32.50;;
8665;SDS011;4370;48.916;8.380;2022-12-18T03:29:03;75.18;;;32.60;;
8665;SDS011;4370;48.916;8.380;2022-12-18T03:31:34;72.18;;;33.35;;
8665;SDS011;4370;48.916;8.380;2022-12-18T03:34:02;72.65;;;33.10;;
8665;SDS011;4370;48.916;8.380;2022-12-18T03:36:34;84.22;;;36.03;;
8665;SDS011;4370;48.916;8.380;2022-12-18T03:39:00;79.18;;;33.40;;
8665;SDS011;4370;48.916;8.380;2022-12-18T03:41:33;82.47;;;33.90;;
8665;SDS011;4370;48.916;8.380;2022-12-18T03:44:19;67.65;;;31.15;;
8665;SDS011;4370;48.916;8.380;2022-12-18T03:47:03;71.10;;;31.30;;
8665;SDS011;4370;48.916;8.380;2022-12-18T03:49:56;73.22;;;33.03;;
8665;SDS011;4370;48.916;8.380;2022-12-18T03:52:30;62.60;;;30.10;;
8665;SDS011;4370;48.916;8.380;2022-12-18T03:55:01;58.33;;;28.30;;
8665;SDS011;4370;48.916;8.380;2022-12-18T03:57:28;66.03;;;30.58;;
8665;SDS011;4370;48.916;8.380;2022-12-18T03:59:57;61.67;;;28.85;;
8665;SDS011;4370;48.916;8.380;2022-12-18T04:02:26;62.25;;;28.08;;
8665;SDS011;4370;48.916;8.380;2022-12-18T04:04:53;60.25;;;27.30;;
8665;SDS011;4370;48.916;8.380;2022-12-18T04:07:22;54.78;;;26.92;;
8665;SDS011;4370;48.916;8.380;2022-12-18T04:09:49;65.40;;;29.55;;
8665;SDS011;4370;48.916;8.380;2022-12-18T04:12:16;57.60;;;26.60;;
8665;SDS011;4370;48.916;8.380;2022-12-18T04:14:42;60.53;;;27.23;;
8665;SDS011;4370;48.916;8.380;2022-12-18T04:17:08;54.97;;;27.03;;
8665;SDS011;4370;48.916;8.380;2022-12-18T04:19:34;56.37;;;26.93;;
8665;SDS011;4370;48.916;8.380;2022-12-18T04:22:00;63.13;;;28.90;;
8665;SDS011;4370;48.916;8.380;2022-12-18T04:24:26;66.83;;;30.87;;
8665;SDS011;4370;48.916;8.380;2022-12-18T04:26:52;58.37;;;26.90;;
8665;SDS011;4370;48.916;8.380;2022-12-18T04:29:18;66.03;;;29.37;;
8665;SDS011;4370;48.916;8.380;2022-12-18T04:31:43;59.13;;;27.90;;
8665;SDS011;4370;48.916;8.380;2022-12-18T04:34:09;63.70;;;29.43;;
8665;SDS011;4370;48.916;8.380;2022-12-18T04:36:36;57.35;;;26.38;;
8665;SDS011;4370;48.916;8.380;2022-12-18T04:39:02;64.63;;;27.40;;
8665;SDS011;4370;48.916;8.380;2022-12-18T04:41:28;68.43;;;30.37;;
8665;SDS011;4370;48.916;8.380;2022-12-18T04:43:54;64.77;;;29.57;;
8665;SDS011;4370;48.916;8.380;2022-12-18T04:46:20;65.67;;;30.03;;
8665;SDS011;4370;48.916;8.380;2022-12-18T04:48:45;62.47;;;28.73;;
8665;SDS011;4370;48.916;8.380;2022-12-18T04:51:12;66.13;;;29.77;;
8665;SDS011;4370;48.916;8.380;2022-12-18T04:53:37;59.13;;;27.77;;
8665;SDS011;4370;48.916;8.380;2022-12-18T04:56:04;63.77;;;30.47;;
8665;SDS011;4370;48.916;8.380;2022-12-18T04:58:38;60.30;;;27.70;;
8665;SDS011;4370;48.916;8.380;2022-12-18T05:01:04;61.70;;;29.30;;
8665;SDS011;4370;48.916;8.380;2022-12-18T05:03:31;64.78;;;28.73;;
8665;SDS011;4370;48.916;8.380;2022-12-18T05:05:57;70.72;;;30.23;;
8665;SDS011;4370;48.916;8.380;2022-12-18T05:08:23;70.90;;;30.77;;
8665;SDS011;4370;48.916;8.380;2022-12-18T05:10:49;80.55;;;32.28;;
8665;SDS011;4370;48.916;8.380;2022-12-18T05:13:15;65.90;;;29.53;;
8665;SDS011;4370;48.916;8.380;2022-12-18T05:15:40;63.57;;;28.77;;
8665;SDS011;4370;48.916;8.380;2022-12-18T05:18:07;75.77;;;30.47;;
8665;SDS011;4370;48.916;8.380;2022-12-18T05:20:33;62.42;;;28.60;;
8665;SDS011;4370;48.916;8.380;2022-12-18T05:22:59;70.73;;;30.30;;
8665;SDS011;4370;48.916;8.380;2022-12-18T05:25:25;83.10;;;33.37;;
8665;SDS011;4370;48.916;8.380;2022-12-18T05:27:51;70.38;;;30.15;;
8665;SDS011;4370;48.916;8.380;2022-12-18T05:30:17;74.83;;;31.67;;
8665;SDS011;4370;48.916;8.380;2022-12-18T05:32:42;76.80;;;31.47;;
8665;SDS011;4370;48.916;8.380;2022-12-18T05:35:09;73.73;;;30.93;;
8665;SDS011;4370;48.916;8.380;2022-12-18T05:37:35;76.80;;;31.77;;
8665;SDS011;4370;48.916;8.380;2022-12-18T05:40:02;71.30;;;30.77;;
8665;SDS011;4370;48.916;8.380;2022-12-18T05:42:28;62.90;;;28.23;;
8665;SDS011;4370;48.916;8.380;2022-12-18T05:44:54;77.10;;;31.03;;
8665;SDS011;4370;48.916;8.380;2022-12-18T05:47:20;75.77;;;33.43;;
8665;SDS011;4370;48.916;8.380;2022-12-18T05:49:46;75.50;;;32.63;;
8665;SDS011;4370;48.916;8.380;2022-12-18T05:52:12;70.80;;;30.10;;
8665;SDS011;4370;48.916;8.380;2022-12-18T05:54:38;76.33;;;32.10;;
8665;SDS011;4370;48.916;8.380;2022-12-18T05:57:04;70.70;;;29.10;;
8665;SDS011;4370;48.916;8.380;2022-12-18T05:59:30;79.03;;;31.87;;
8665;SDS011;4370;48.916;8.380;2022-12-18T06:01:56;75.50;;;32.50;;
8665;SDS011;4370;48.916;8.380;2022-12-18T06:04:22;76.57;;;31.70;;
8665;SDS011;4370;48.916;8.380;2022-12-18T06:06:48;69.23;;;30.67;;
8665;SDS011;4370;48.916;8.380;2022-12-18T06:09:13;81.27;;;32.60;;
8665;SDS011;4370;48.916;8.380;2022-12-18T06:11:39;71.23;;;29.90;;
8665;SDS011;4370;48.916;8.380;2022-12-18T06:14:05;80.83;;;32.13;;
8665;SDS011;4370;48.916;8.380;2022-12-18T06:16:31;77.22;;;33.25;;
8665;SDS011;4370;48.916;8.380;2022-12-18T06:19:00;76.15;;;31.98;;
8665;SDS011;4370;48.916;8.380;2022-12-18T06:21:28;70.80;;;30.88;;
8665;SDS011;4370;48.916;8.380;2022-12-18T06:23:54;68.32;;;30.15;;
8665;SDS011;4370;48.916;8.380;2022-12-18T06:26:19;75.43;;;31.70;;
8665;SDS011;4370;48.916;8.380;2022-12-18T06:28:45;72.17;;;30.10;;
8665;SDS011;4370;48.916;8.380;2022-12-18T06:31:11;70.05;;;28.80;;
8665;SDS011;4370;48.916;8.380;2022-12-18T06:33:38;72.50;;;30.50;;
8665;SDS011;4370;48.916;8.380;2022-12-18T06:36:05;73.95;;;30.70;;
8665;SDS011;4370;48.916;8.380;2022-12-18T06:38:33;75.88;;;31.52;;
8665;SDS011;4370;48.916;8.380;2022-12-18T06:40:59;77.47;;;31.35;;
8665;SDS011;4370;48.916;8.380;2022-12-18T06:43:25;73.27;;;30.30;;
8665;SDS011;4370;48.916;8.380;2022-12-18T06:45:51;75.33;;;31.20;;
8665;SDS011;4370;48.916;8.380;2022-12-18T06:48:18;66.97;;;31.00;;
8665;SDS011;4370;48.916;8.380;2022-12-18T06:50:44;69.63;;;28.50;;
8665;SDS011;4370;48.916;8.380;2022-12-18T06:53:10;63.03;;;28.00;;
8665;SDS011;4370;48.916;8.380;2022-12-18T06:55:36;71.90;;;29.53;;
8665;SDS011;4370;48.916;8.380;2022-12-18T06:58:02;68.90;;;29.83;;
8665;SDS011;4370;48.916;8.380;2022-12-18T07:00:28;74.80;;;30.35;;
8665;SDS011;4370;48.916;8.380;2022-12-18T07:02:54;82.70;;;32.40;;
8665;SDS011;4370;48.916;8.380;2022-12-18T07:05:20;66.97;;;29.13;;
8665;SDS011;4370;48.916;8.380;2022-12-18T07:07:46;62.73;;;28.70;;
8665;SDS011;4370;48.916;8.380;2022-12-18T07:10:12;65.00;;;27.87;;
8665;SDS011;4370;48.916;8.380;2022-12-18T07:12:38;68.43;;;29.70;;
8665;SDS011;4370;48.916;8.380;2022-12-18T07:15:04;76.93;;;33.37;;
8665;SDS011;4370;48.916;8.380;2022-12-18T07:17:30;72.28;;;30.33;;
8665;SDS011;4370;48.916;8.380;2022-12-18T07:19:55;72.37;;;30.33;;
8665;SDS011;4370;48.916;8.380;2022-12-18T07:22:21;83.47;;;34.23;;
8665;SDS011;4370;48.916;8.380;2022-12-18T07:24:47;81.57;;;36.03;;
8665;SDS011;4370;48.916;8.380;2022-12-18T07:27:13;76.70;;;34.78;;
8665;SDS011;4370;48.916;8.380;2022-12-18T07:29:39;72.00;;;33.90;;
8665;SDS011;4370;48.916;8.380;2022-12-18T07:32:05;85.87;;;34.63;;
8665;SDS011;4370;48.916;8.380;2022-12-18T07:34:32;71.53;;;31.77;;
8665;SDS011;4370;48.916;8.380;2022-12-18T07:36:58;82.25;;;35.28;;
8665;SDS011;4370;48.916;8.380;2022-12-18T07:39:24;83.07;;;34.85;;
8665;SDS011;4370;48.916;8.380;2022-12-18T07:41:50;76.03;;;32.20;;
8665;SDS011;4370;48.916;8.380;2022-12-18T07:44:34;71.47;;;29.85;;
8665;SDS011;4370;48.916;8.380;2022-12-18T07:47:00;70.35;;;31.75;;
8665;SDS011;4370;48.916;8.380;2022-12-18T07:49:27;75.53;;;31.77;;
8665;SDS011;4370;48.916;8.380;2022-12-18T07:51:53;63.30;;;28.27;;
8665;SDS011;4370;48.916;8.380;2022-12-18T07:54:20;66.88;;;28.67;;
8665;SDS011;4370;48.916;8.380;2022-12-18T07:56:46;73.73;;;30.37;;
8665;SDS011;4370;48.916;8.380;2022-12-18T07:59:12;76.80;;;31.40;;
8665;SDS011;4370;48.916;8.380;2022-12-18T08:01:38;77.07;;;30.47;;
8665;SDS011;4370;48.916;8.380;2022-12-18T08:04:04;69.83;;;29.80;;
8665;SDS011;4370;48.916;8.380;2022-12-18T08:06:30;64.17;;;28.70;;
8665;SDS011;4370;48.916;8.380;2022-12-18T08:08:56;62.23;;;26.33;;
8665;SDS011;4370;48.916;8.380;2022-12-18T08:11:22;63.03;;;28.23;;
8665;SDS011;4370;48.916;8.380;2022-12-18T08:13:49;74.28;;;30.58;;
8665;SDS011;4370;48.916;8.380;2022-12-18T08:16:16;78.03;;;32.67;;
8665;SDS011;4370;48.916;8.380;2022-12-18T08:18:41;67.43;;;28.73;;
8665;SDS011;4370;48.916;8.380;2022-12-18T08:21:08;66.27;;;28.50;;
8665;SDS011;4370;48.916;8.380;2022-12-18T08:23:38;67.47;;;27.43;;
8665;SDS011;4370;48.916;8.380;2022-12-18T08:26:04;70.45;;;27.10;;
8665;SDS011;4370;48.916;8.380;2022-12-18T08:28:30;75.30;;;29.80;;
8665;SDS011;4370;48.916;8.380;2022-12-18T08:30:56;65.57;;;28.40;;
8665;SDS011;4370;48.916;8.380;2022-12-18T08:33:22;62.03;;;26.77;;
8665;SDS011;4370;48.916;8.380;2022-12-18T08:35:48;66.90;;;28.63;;
8665;SDS011;4370;48.916;8.380;2022-12-18T08:38:14;71.97;;;28.80;;
8665;SDS011;4370;48.916;8.380;2022-12-18T08:40:39;70.90;;;28.90;;
8665;SDS011;4370;48.916;8.380;2022-12-18T08:43:06;72.87;;;29.53;;
8665;SDS011;4370;48.916;8.380;2022-12-18T08:45:52;72.23;;;30.00;;
8665;SDS011;4370;48.916;8.380;2022-12-18T08:48:18;72.80;;;31.07;;
8665;SDS011;4370;48.916;8.380;2022-12-18T08:50:53;76.63;;;28.87;;
8665;SDS011;4370;48.916;8.380;2022-12-18T08:53:22;72.00;;;29.50;;
8665;SDS011;4370;48.916;8.380;2022-12-18T08:55:47;75.43;;;30.40;;
8665;SDS011;4370;48.916;8.380;2022-12-18T08:58:13;70.07;;;30.13;;
8665;SDS011;4370;48.916;8.380;2022-12-18T09:00:40;66.40;;;27.03;;
8665;SDS011;4370;48.916;8.380;2022-12-18T09:03:10;68.83;;;28.37;;
8665;SDS011;4370;48.916;8.380;2022-12-18T09:05:40;66.10;;;27.47;;
8665;SDS011;4370;48.916;8.380;2022-12-18T09:08:06;73.77;;;28.87;;
8665;SDS011;4370;48.916;8.380;2022-12-18T09:10:32;70.37;;;27.43;;
8665;SDS011;4370;48.916;8.380;2022-12-18T09:19:03;66.93;;;29.40;;
8665;SDS011;4370;48.916;8.380;2022-12-18T09:21:30;70.57;;;29.43;;
8665;SDS011;4370;48.916;8.380;2022-12-18T09:23:58;67.60;;;26.83;;
8665;SDS011;4370;48.916;8.380;2022-12-18T09:26:25;59.80;;;25.70;;
8665;SDS011;4370;48.916;8.380;2022-12-18T09:28:51;71.33;;;27.67;;
8665;SDS011;4370;48.916;8.380;2022-12-18T09:31:18;60.00;;;26.07;;
8665;SDS011;4370;48.916;8.380;2022-12-18T09:33:45;57.63;;;25.53;;
8665;SDS011;4370;48.916;8.380;2022-12-18T09:36:12;59.47;;;25.80;;
8665;SDS011;4370;48.916;8.380;2022-12-18T09:38:40;58.33;;;25.97;;
8665;SDS011;4370;48.916;8.380;2022-12-18T09:44:00;63.77;;;26.27;;
8665;SDS011;4370;48.916;8.380;2022-12-18T09:46:31;64.00;;;26.57;;
8665;SDS011;4370;48.916;8.380;2022-12-18T09:49:02;60.33;;;25.63;;
8665;SDS011;4370;48.916;8.380;2022-12-18T09:51:35;57.83;;;25.60;;
8665;SDS011;4370;48.916;8.380;2022-12-18T09:54:05;59.67;;;25.77;;
8665;SDS011;4370;48.916;8.380;2022-12-18T09:56:36;57.87;;;25.90;;
8665;SDS011;4370;48.916;8.380;2022-12-18T09:59:09;61.23;;;26.47;;
8665;SDS011;4370;48.916;8.380;2022-12-18T10:01:43;55.30;;;24.43;;
8665;SDS011;4370;48.916;8.380;2022-12-18T10:04:09;63.10;;;25.57;;
8665;SDS011;4370;48.916;8.380;2022-12-18T10:06:36;55.13;;;23.70;;
8665;SDS011;4370;48.916;8.380;2022-12-18T10:12:05;56.50;;;25.17;;
8665;SDS011;4370;48.916;8.380;2022-12-18T10:17:30;54.53;;;24.03;;
8665;SDS011;4370;48.916;8.380;2022-12-18T10:23:08;58.53;;;24.80;;
8665;SDS011;4370;48.916;8.380;2022-12-18T10:25:54;56.23;;;23.73;;
8665;SDS011;4370;48.916;8.380;2022-12-18T10:28:29;56.27;;;24.97;;
8665;SDS011;4370;48.916;8.380;2022-12-18T10:30:56;56.73;;;24.67;;
8665;SDS011;4370;48.916;8.380;2022-12-18T10:33:23;59.43;;;24.37;;
8665;SDS011;4370;48.916;8.380;2022-12-18T10:35:52;56.70;;;25.63;;
8665;SDS011;4370;48.916;8.380;2022-12-18T10:40:48;57.17;;;25.40;;
8665;SDS011;4370;48.916;8.380;2022-12-18T10:43:24;57.03;;;25.53;;
8665;SDS011;4370;48.916;8.380;2022-12-18T10:51:20;53.90;;;25.33;;
8665;SDS011;4370;48.916;8.380;2022-12-18T10:53:52;57.17;;;24.63;;
8665;SDS011;4370;48.916;8.380;2022-12-18T10:56:20;55.13;;;24.43;;
8665;SDS011;4370;48.916;8.380;2022-12-18T10:58:55;56.93;;;26.10;;
8665;SDS011;4370;48.916;8.380;2022-12-18T11:01:25;51.87;;;24.77;;
8665;SDS011;4370;48.916;8.380;2022-12-18T11:06:21;54.37;;;25.97;;
8665;SDS011;4370;48.916;8.380;2022-12-18T11:11:23;58.83;;;27.10;;
8665;SDS011;4370;48.916;8.380;2022-12-18T11:13:53;53.00;;;24.60;;
8665;SDS011;4370;48.916;8.380;2022-12-18T11:16:22;63.80;;;27.93;;
8665;SDS011;4370;48.916;8.380;2022-12-18T11:18:48;56.37;;;25.90;;
8665;SDS011;4370;48.916;8.380;2022-12-18T11:21:14;64.37;;;28.23;;
8665;SDS011;4370;48.916;8.380;2022-12-18T11:26:14;56.13;;;26.50;;
8665;SDS011;4370;48.916;8.380;2022-12-18T11:28:44;59.60;;;26.83;;
8665;SDS011;4370;48.916;8.380;2022-12-18T11:31:24;64.30;;;25.97;;
8665;SDS011;4370;48.916;8.380;2022-12-18T11:36:34;54.77;;;26.33;;
8665;SDS011;4370;48.916;8.380;2022-12-18T11:39:12;59.13;;;27.77;;
8665;SDS011;4370;48.916;8.380;2022-12-18T11:41:47;56.43;;;26.60;;
8665;SDS011;4370;48.916;8.380;2022-12-18T11:47:12;58.73;;;27.27;;
8665;SDS011;4370;48.916;8.380;2022-12-18T11:49:51;59.00;;;26.67;;
8665;SDS011;4370;48.916;8.380;2022-12-18T11:52:24;58.07;;;26.23;;
8665;SDS011;4370;48.916;8.380;2022-12-18T11:55:04;58.77;;;28.07;;
8665;SDS011;4370;48.916;8.380;2022-12-18T12:00:55;55.93;;;27.27;;
8665;SDS011;4370;48.916;8.380;2022-12-18T12:06:39;61.10;;;29.20;;
8665;SDS011;4370;48.916;8.380;2022-12-18T12:20:10;62.97;;;28.87;;
8665;SDS011;4370;48.916;8.380;2022-12-18T12:33:21;72.20;;;30.20;;
8665;SDS011;4370;48.916;8.380;2022-12-18T12:36:34;58.43;;;26.43;;
8665;SDS011;4370;48.916;8.380;2022-12-18T12:39:05;64.20;;;27.17;;
8665;SDS011;4370;48.916;8.380;2022-12-18T12:41:35;63.40;;;28.67;;
8665;SDS011;4370;48.916;8.380;2022-12-18T12:44:23;68.87;;;28.20;;
8665;SDS011;4370;48.916;8.380;2022-12-18T12:46:52;62.77;;;28.03;;
8665;SDS011;4370;48.916;8.380;2022-12-18T12:49:22;65.83;;;28.73;;
8665;SDS011;4370;48.916;8.380;2022-12-18T12:54:54;58.10;;;27.63;;
8665;SDS011;4370;48.916;8.380;2022-12-18T12:57:23;67.03;;;31.30;;
8665;SDS011;4370;48.916;8.380;2022-12-18T13:00:14;65.83;;;29.60;;
8665;SDS011;4370;48.916;8.380;2022-12-18T13:02:54;62.30;;;29.33;;
8665;SDS011;4370;48.916;8.380;2022-12-18T13:05:41;66.67;;;30.83;;
8665;SDS011;4370;48.916;8.380;2022-12-18T13:08:28;73.87;;;30.07;;
8665;SDS011;4370;48.916;8.380;2022-12-18T13:10:56;69.07;;;30.63;;
8665;SDS011;4370;48.916;8.380;2022-12-18T13:13:51;67.90;;;29.73;;
8665;SDS011;4370;48.916;8.380;2022-12-18T13:16:25;71.43;;;30.70;;
8665;SDS011;4370;48.916;8.380;2022-12-18T13:18:53;68.10;;;32.17;;
8665;SDS011;4370;48.916;8.380;2022-12-18T13:21:29;64.70;;;30.37;;
8665;SDS011;4370;48.916;8.380;2022-12-18T13:23:57;65.73;;;29.67;;
8665;SDS011;4370;48.916;8.380;2022-12-18T13:26:59;64.30;;;28.77;;
8665;SDS011;4370;48.916;8.380;2022-12-18T13:29:41;66.93;;;31.10;;
8665;SDS011;4370;48.916;8.380;2022-12-18T13:32:24;64.63;;;30.80;;
8665;SDS011;4370;48.916;8.380;2022-12-18T13:37:52;70.63;;;30.57;;
8665;SDS011;4370;48.916;8.380;2022-12-18T13:48:14;63.73;;;30.37;;
8665;SDS011;4370;48.916;8.380;2022-12-18T13:50:49;58.33;;;29.00;;
8665;SDS011;4370;48.916;8.380;2022-12-18T13:53:26;63.23;;;30.80;;
8665;SDS011;4370;48.916;8.380;2022-12-18T13:55:55;59.33;;;30.00;;
8665;SDS011;4370;48.916;8.380;2022-12-18T13:58:21;64.33;;;32.30;;
8665;SDS011;4370;48.916;8.380;2022-12-18T14:00:47;62.07;;;30.93;;
8665;SDS011;4370;48.916;8.380;2022-12-18T14:03:17;66.27;;;30.93;;
8665;SDS011;4370;48.916;8.380;2022-12-18T14:05:45;62.00;;;30.07;;
8665;SDS011;4370;48.916;8.380;2022-12-18T14:08:17;65.27;;;29.37;;
8665;SDS011;4370;48.916;8.380;2022-12-18T14:10:44;66.60;;;30.23;;
8665;SDS011;4370;48.916;8.380;2022-12-18T14:13:15;54.57;;;28.83;;
8665;SDS011;4370;48.916;8.380;2022-12-18T14:15:54;61.13;;;29.87;;
8665;SDS011;4370;48.916;8.380;2022-12-18T14:18:22;67.47;;;31.43;;
8665;SDS011;4370;48.916;8.380;2022-12-18T14:21:14;64.87;;;30.50;;
8665;SDS011;4370;48.916;8.380;2022-12-18T14:23:47;65.20;;;32.20;;
8665;SDS011;4370;48.916;8.380;2022-12-18T14:26:26;74.07;;;32.20;;
8665;SDS011;4370;48.916;8.380;2022-12-18T14:28:57;66.87;;;32.20;;
8665;SDS011;4370;48.916;8.380;2022-12-18T14:31:43;66.67;;;33.13;;
8665;SDS011;4370;48.916;8.380;2022-12-18T14:34:14;67.57;;;31.97;;
8665;SDS011;4370;48.916;8.380;2022-12-18T14:36:41;62.40;;;31.83;;
8665;SDS011;4370;48.916;8.380;2022-12-18T14:39:13;66.47;;;32.03;;
8665;SDS011;4370;48.916;8.380;2022-12-18T14:41:42;60.83;;;30.30;;
8665;SDS011;4370;48.916;8.380;2022-12-18T14:44:10;59.87;;;29.67;;
8665;SDS011;4370;48.916;8.380;2022-12-18T14:52:05;61.10;;;28.33;;
8665;SDS011;4370;48.916;8.380;2022-12-18T14:54:45;61.93;;;29.27;;
8665;SDS011;4370;48.916;8.380;2022-12-18T14:57:30;56.47;;;27.27;;
8665;SDS011;4370;48.916;8.380;2022-12-18T15:00:07;54.53;;;27.63;;
8665;SDS011;4370;48.916;8.380;2022-12-18T15:02:41;56.13;;;28.10;;
8665;SDS011;4370;48.916;8.380;2022-12-18T15:05:16;57.23;;;28.13;;
8665;SDS011;4370;48.916;8.380;2022-12-18T15:07:47;56.03;;;27.57;;
8665;SDS011;4370;48.916;8.380;2022-12-18T15:12:48;55.57;;;27.60;;
8665;SDS011;4370;48.916;8.380;2022-12-18T15:18:01;54.77;;;28.20;;
8665;SDS011;4370;48.916;8.380;2022-12-18T15:26:05;61.22;;;33.92;;
8665;SDS011;4370;48.916;8.380;2022-12-18T15:28:37;56.40;;;28.83;;
8665;SDS011;4370;48.916;8.380;2022-12-18T15:33:38;53.00;;;25.70;;
8665;SDS011;4370;48.916;8.380;2022-12-18T15:36:10;48.83;;;24.20;;
8665;SDS011;4370;48.916;8.380;2022-12-18T15:42:37;52.30;;;24.93;;
8665;SDS011;4370;48.916;8.380;2022-12-18T15:45:25;55.23;;;27.23;;
8665;SDS011;4370;48.916;8.380;2022-12-18T17:23:03;78.20;;;35.57;;
8665;SDS011;4370;48.916;8.380;2022-12-18T17:26:00;80.53;;;37.80;;
8665;SDS011;4370;48.916;8.380;2022-12-18T17:28:37;69.83;;;33.90;;
8665;SDS011;4370;48.916;8.380;2022-12-18T17:42:23;84.57;;;37.13;;
8665;SDS011;4370;48.916;8.380;2022-12-18T17:44:50;88.50;;;38.67;;
8665;SDS011;4370;48.916;8.380;2022-12-18T17:47:16;80.77;;;37.73;;
8665;SDS011;4370;48.916;8.380;2022-12-18T17:49:42;78.20;;;36.27;;
8665;SDS011;4370;48.916;8.380;2022-12-18T17:52:08;80.30;;;36.80;;
8665;SDS011;4370;48.916;8.380;2022-12-18T17:54:34;87.03;;;36.17;;
8665;SDS011;4370;48.916;8.380;2022-12-18T17:57:03;80.03;;;35.10;;
8665;SDS011;4370;48.916;8.380;2022-12-18T17:59:29;78.20;;;35.50;;
8665;SDS011;4370;48.916;8.380;2022-12-18T18:01:54;78.40;;;34.83;;
8665;SDS011;4370;48.916;8.380;2022-12-18T18:04:20;86.03;;;36.77;;
8665;SDS011;4370;48.916;8.380;2022-12-18T18:06:45;99.20;;;41.43;;
8665;SDS011;4370;48.916;8.380;2022-12-18T18:12:35;82.50;;;36.47;;
8665;SDS011;4370;48.916;8.380;2022-12-18T18:19:14;85.97;;;36.70;;
8665;SDS011;4370;48.916;8.380;2022-12-18T18:35:46;90.23;;;38.00;;
8665;SDS011;4370;48.916;8.380;2022-12-18T18:38:12;96.77;;;38.23;;
8665;SDS011;4370;48.916;8.380;2022-12-18T18:40:38;85.40;;;36.93;;
8665;SDS011;4370;48.916;8.380;2022-12-18T18:43:03;84.53;;;37.00;;
8665;SDS011;4370;48.916;8.380;2022-12-18T18:45:29;91.27;;;38.00;;
8665;SDS011;4370;48.916;8.380;2022-12-18T18:47:54;87.57;;;37.80;;
8665;SDS011;4370;48.916;8.380;2022-12-18T18:50:20;92.77;;;38.20;;
8665;SDS011;4370;48.916;8.380;2022-12-18T18:52:46;96.70;;;39.50;;
8665;SDS011;4370;48.916;8.380;2022-12-18T18:55:11;90.57;;;38.53;;
8665;SDS011;4370;48.916;8.380;2022-12-18T18:57:37;92.17;;;38.90;;
8665;SDS011;4370;48.916;8.380;2022-12-18T19:00:03;88.57;;;36.60;;
8665;SDS011;4370;48.916;8.380;2022-12-18T19:02:29;88.70;;;38.87;;
8665;SDS011;4370;48.916;8.380;2022-12-18T19:04:58;91.10;;;36.60;;
